Advanced Energy Industries Net Profit Margin 2010-2022 | AEIS

Advanced Energy Industries net profit margin from 2010 to 2022. Net profit margin can be defined as net Income as a portion of total sales revenue.
Advanced Energy Industries Net Profit Margin Historical Data
Date TTM Revenue TTM Net Income Net Margin
2022-09-30 $1.75B $0.20B 11.19%
2022-06-30 $1.58B $0.14B 9.04%
2022-03-31 $1.50B $0.13B 8.86%
2021-12-31 $1.46B $0.14B 9.27%
2021-09-30 $1.43B $0.14B 9.58%
2021-06-30 $1.47B $0.16B 10.99%
2021-03-31 $1.45B $0.16B 10.74%
2020-12-31 $1.42B $0.14B 9.53%
2020-09-30 $1.38B $0.10B 7.45%
2020-06-30 $1.17B $0.07B 5.57%
2020-03-31 $0.96B $0.07B 7.06%
2019-12-31 $0.79B $0.07B 8.24%
2019-09-30 $0.61B $0.07B 12.23%
2019-06-30 $0.60B $0.10B 16.75%
2019-03-31 $0.66B $0.12B 17.32%
2018-12-31 $0.72B $0.15B 20.31%
2018-09-30 $0.74B $0.10B 13.04%
2018-06-30 $0.75B $0.15B 19.52%
2018-03-31 $0.72B $0.15B 20.33%
2017-12-31 $0.67B $0.14B 20.57%
2017-09-30 $0.63B $0.21B 33.81%
2017-06-30 $0.58B $0.16B 27.38%
2017-03-31 $0.53B $0.14B 26.98%
2016-12-31 $0.48B $0.13B 26.24%
2016-09-30 $0.44B $0.12B 27.29%
2016-06-30 $0.42B $0.11B 25.06%
2016-03-31 $0.41B $-0.16B -38.63%
2015-12-31 $0.42B $-0.16B -38.22%
2015-09-30 $0.44B $-0.19B -42.37%
2015-06-30 $0.47B $-0.19B -40.25%
2015-03-31 $0.51B $0.05B 10.41%
2014-12-31 $0.54B $0.05B 8.70%
2014-09-30 $0.58B $0.07B 12.35%
2014-06-30 $0.58B $0.06B 10.46%
2014-03-31 $0.58B $0.04B 6.93%
2013-12-31 $0.55B $0.03B 5.84%
2013-09-30 $0.51B $0.00B 0.59%
2013-06-30 $0.48B $0.01B 1.66%
2013-03-31 $0.46B $0.03B 5.88%
2012-12-31 $0.45B $0.02B 4.64%
2012-09-30 $0.45B $0.01B 2.88%
2012-06-30 $0.46B $0.01B 3.03%
2012-03-31 $0.48B $0.02B 3.93%
2011-12-31 $0.52B $0.04B 7.17%
2011-09-30 $0.55B $0.07B 12.84%
2011-06-30 $0.57B $0.08B 14.84%
2011-03-31 $0.53B $0.08B 15.91%
2010-12-31 $0.46B $0.07B 15.43%
2010-09-30 $0.37B $0.04B 11.51%
2010-06-30 $0.27B $0.01B 5.24%
2010-03-31 $0.20B $-0.02B -8.04%
2009-12-31 $0.16B $-0.10B -62.96%
Sector Industry Market Cap Revenue
Computer and Technology Semiconductor - Wafer Fabrication Equipment $3.547B $1.456B
Advanced Energy Industries is a power technology company. The company is one of the leading suppliers of power subsystems and process-control technologies to the semiconductor industry. Advanced Energy had undergone a major restructuring exiting the solar inverter business. The company now focuses primarily on power-conversion solutions, including direct current, pulsed DC, low frequency, high voltage, and radio frequency (RF) power supplies, as well as matching networks and remote plasma sources for reactive gas applications and RF instrumentation to leverage the semiconductor, flat panel display, and industrial markets. The industrial power capital market is comprised of products for Thin Films Industrial Power and Specialty Power applications. Further, Advanced Energy made foray into two new growth markets: data center computing and telecom & networking on the back of Artesyn Embedded Power acquisition. Additionally, the company maintains its facilities throughout Asia, Europe and North America.
Stock Name Country Market Cap PE Ratio